Albany, Ohio
Current Conditions -  °F | °C
As of 7:10 AM on Thursday 29 Jan 2015 (Local Time) from KUNI Reporting Station
Overcast Overcast  
Wind Chill: 24°   Ceiling: 10000
Heat Index: 30°   Visibility: 10mi
Dew Point: 17°   Wind: 6mph
Humidity: 57%   Direction: 160°SSE
Pressure: 30.01"   Gusts: NA
Location:  39.23°N, 82.2°W
Report Text: KUNI 291210Z AUTO 16005KT 10SM OVC100 M01/M08 A3001 RMK AO2 T10101085
Loading
Personal Weather Stations






























Interactive Weather Map New forecast layout! Learn more

10-Day Weather Forecast

Advertisements
Track Severe Weather on mobile